createdAt,value
2023-03-16T00:00:22.082Z,101617.56
2023-03-16T00:02:49.954Z,101619.50
2023-03-16T00:05:18.014Z,101624.59
2023-03-16T00:07:45.901Z,101619.53
2023-03-16T00:10:15.778Z,101618.69
2023-03-16T00:12:44.938Z,101623.44
2023-03-16T00:15:13.213Z,101621.88
2023-03-16T00:17:41.373Z,101624.84
2023-03-16T00:20:15.410Z,101622.31
2023-03-16T00:22:43.346Z,101628.56
2023-03-16T00:25:12.760Z,101623.47
2023-03-16T00:27:42.458Z,101631.09
2023-03-16T00:30:11.694Z,101623.47
2023-03-16T00:32:40.031Z,101633.25
2023-03-16T00:35:09.545Z,101627.00
2023-03-16T00:37:39.350Z,101629.69
2023-03-16T00:40:09.194Z,101630.47
2023-03-16T00:42:37.056Z,101636.34
2023-03-16T00:45:07.750Z,101633.25
2023-03-16T00:47:36.237Z,101637.72
2023-03-16T00:50:04.247Z,101636.97
2023-03-16T00:52:32.360Z,101637.72
2023-03-16T00:55:00.256Z,101637.97
2023-03-16T00:57:30.046Z,101633.50
2023-03-16T00:59:59.259Z,101638.81
2023-03-16T01:02:29.280Z,101637.91
2023-03-16T01:04:57.201Z,101647.47
2023-03-16T01:07:26.743Z,101651.06
2023-03-16T01:09:54.587Z,101645.13
2023-03-16T01:12:22.493Z,101646.97
2023-03-16T01:14:50.692Z,101648.91
2023-03-16T01:17:18.997Z,101656.63
2023-03-16T01:19:48.261Z,101641.03
2023-03-16T01:22:17.186Z,101642.66
2023-03-16T01:24:46.701Z,101642.03
2023-03-16T01:27:17.174Z,101647.06
2023-03-16T01:29:45.228Z,101640.47
2023-03-16T01:32:13.996Z,101635.28
2023-03-16T01:34:42.446Z,101642.88
2023-03-16T01:37:13.905Z,101642.13
2023-03-16T01:39:53.367Z,101636.88
2023-03-16T01:42:21.443Z,101639.19
2023-03-16T01:44:55.501Z,101642.16
2023-03-16T01:47:29.499Z,101640.34
2023-03-16T01:49:57.904Z,101642.16
2023-03-16T01:52:34.637Z,101649.44
2023-03-16T01:55:04.749Z,101638.97
2023-03-16T01:57:36.919Z,101641.66
2023-03-16T02:00:10.552Z,101647.13
2023-03-16T02:02:56.182Z,101642.44
2023-03-16T02:05:34.886Z,101643.06
2023-03-16T02:08:05.526Z,101633.59
2023-03-16T02:10:33.873Z,101637.34
2023-03-16T02:13:03.572Z,101636.72
2023-03-16T02:15:31.626Z,101639.66
2023-03-16T02:18:00.185Z,101634.66
2023-03-16T02:20:35.194Z,101635.63
2023-03-16T02:23:05.639Z,101626.00
2023-03-16T02:25:40.316Z,101638.13
2023-03-16T02:28:13.452Z,101629.69
2023-03-16T02:30:45.064Z,101634.50
2023-03-16T02:33:13.467Z,101636.63
2023-03-16T02:35:41.335Z,101632.09
2023-03-16T02:38:09.969Z,101639.97
2023-03-16T02:40:44.050Z,101637.59
2023-03-16T02:43:16.010Z,101638.88
2023-03-16T02:45:52.911Z,101632.78
2023-03-16T02:48:24.846Z,101636.31
2023-03-16T02:50:54.258Z,101640.63
2023-03-16T02:53:22.299Z,101639.66
2023-03-16T02:55:50.736Z,101638.81
2023-03-16T02:58:19.023Z,101639.84
2023-03-16T03:00:47.942Z,101645.31
2023-03-16T03:03:19.255Z,101631.47
2023-03-16T03:05:47.313Z,101642.47
2023-03-16T03:08:15.271Z,101647.19
2023-03-16T03:10:43.410Z,101647.25
2023-03-16T03:13:12.225Z,101650.00
2023-03-16T03:15:40.965Z,101648.88
2023-03-16T03:18:12.028Z,101650.53
2023-03-16T03:20:42.566Z,101656.81
2023-03-16T03:23:11.327Z,101664.72
2023-03-16T03:25:39.372Z,101662.88
2023-03-16T03:28:07.302Z,101670.22
2023-03-16T03:30:35.574Z,101666.13
2023-03-16T03:33:05.097Z,101666.16
2023-03-16T03:35:33.072Z,101662.75
2023-03-16T03:38:02.375Z,101667.03
2023-03-16T03:40:30.868Z,101670.63
2023-03-16T03:43:02.701Z,101673.16
2023-03-16T03:45:32.152Z,101668.91
2023-03-16T03:48:00.496Z,101669.03
2023-03-16T03:50:29.201Z,101668.19
2023-03-16T03:53:25.602Z,101678.09
2023-03-16T03:56:15.653Z,101673.63
2023-03-16T03:58:43.558Z,101673.63
2023-03-16T04:01:14.063Z,101672.00
2023-03-16T04:03:45.049Z,101670.16
2023-03-16T04:06:15.481Z,101676.31
2023-03-16T04:08:44.790Z,101673.78
2023-03-16T04:11:16.243Z,101673.63
2023-03-16T04:13:44.186Z,101666.16
2023-03-16T04:16:16.078Z,101672.38
2023-03-16T04:18:46.103Z,101676.19
2023-03-16T04:21:16.951Z,101671.16
2023-03-16T04:23:48.876Z,101663.47
2023-03-16T04:26:17.853Z,101675.06
2023-03-16T04:28:47.391Z,101674.47
2023-03-16T04:31:18.089Z,101674.63
2023-03-16T04:33:47.703Z,101677.50
2023-03-16T04:36:15.822Z,101671.63
2023-03-16T04:38:44.507Z,101675.28
2023-03-16T04:41:14.683Z,101679.59
2023-03-16T04:43:53.818Z,101681.31
2023-03-16T04:46:26.452Z,101682.22
2023-03-16T04:48:58.459Z,101683.38
2023-03-16T04:51:28.068Z,101681.66
2023-03-16T04:54:18.255Z,101684.91
2023-03-16T04:56:47.456Z,101683.50
2023-03-16T04:59:41.574Z,101685.31
2023-03-16T05:02:38.770Z,101688.84
2023-03-16T05:05:07.587Z,101693.03
2023-03-16T05:07:37.202Z,101693.34
2023-03-16T05:10:05.507Z,101693.22
2023-03-16T05:12:35.166Z,101697.59
2023-03-16T05:15:06.906Z,101696.88
2023-03-16T05:17:38.499Z,101694.19
2023-03-16T05:20:08.361Z,101700.34
2023-03-16T05:22:38.535Z,101699.44
2023-03-16T05:25:14.962Z,101695.19
2023-03-16T05:27:47.839Z,101696.88
2023-03-16T05:30:22.047Z,101699.56
2023-03-16T05:32:51.090Z,101706.38
2023-03-16T05:35:19.493Z,101701.06
2023-03-16T05:37:47.935Z,101699.19
2023-03-16T05:40:22.847Z,101707.56
2023-03-16T05:43:01.310Z,101706.75
2023-03-16T05:45:32.477Z,101708.44
2023-03-16T05:48:09.798Z,101709.88
2023-03-16T05:50:44.581Z,101715.03
2023-03-16T05:53:15.300Z,101719.84
2023-03-16T05:55:43.655Z,101713.78
2023-03-16T05:58:16.449Z,101718.88
2023-03-16T06:00:45.525Z,101726.00
2023-03-16T06:03:23.776Z,101734.78
2023-03-16T06:05:53.533Z,101734.78
2023-03-16T06:08:29.291Z,101728.28
2023-03-16T06:11:04.107Z,101731.81
2023-03-16T06:13:33.509Z,101729.13
2023-03-16T06:16:01.536Z,101736.56
2023-03-16T06:18:29.692Z,101731.00
2023-03-16T06:20:57.662Z,101729.56
2023-03-16T06:23:25.923Z,101736.06
2023-03-16T06:25:55.746Z,101730.28
2023-03-16T06:28:26.156Z,101737.69
2023-03-16T06:30:56.459Z,101730.94
2023-03-16T06:33:27.270Z,101741.06
2023-03-16T06:35:55.341Z,101740.84
2023-03-16T06:38:31.509Z,101746.75
2023-03-16T06:41:13.294Z,101745.56
2023-03-16T06:43:42.446Z,101757.13
2023-03-16T06:46:12.358Z,101750.59
2023-03-16T06:48:41.763Z,101755.91
2023-03-16T06:51:10.621Z,101763.06
2023-03-16T06:53:38.468Z,101769.38
2023-03-16T06:56:07.866Z,101768.56
2023-03-16T06:58:40.366Z,101772.28
2023-03-16T07:01:08.394Z,101769.09
2023-03-16T07:03:37.890Z,101771.59
2023-03-16T07:06:14.552Z,101774.69
2023-03-16T07:08:43.517Z,101777.53
2023-03-16T07:11:12.157Z,101780.41
2023-03-16T07:13:40.024Z,101780.72
2023-03-16T07:16:08.952Z,101783.69
2023-03-16T07:18:39.888Z,101789.59
2023-03-16T07:21:11.000Z,101781.56
2023-03-16T07:23:40.428Z,101776.78
2023-03-16T07:26:09.753Z,101781.50
2023-03-16T07:28:41.888Z,101784.84
2023-03-16T07:31:10.366Z,101790.03
2023-03-16T07:33:42.590Z,101787.78
2023-03-16T07:36:15.191Z,101789.75
2023-03-16T07:38:49.237Z,101787.09
2023-03-16T07:41:17.035Z,101791.50
2023-03-16T07:43:45.194Z,101793.41
2023-03-16T07:46:15.720Z,101797.00
2023-03-16T07:48:45.853Z,101787.75
2023-03-16T07:51:14.820Z,101787.84
2023-03-16T07:53:46.497Z,101787.28
2023-03-16T07:56:19.358Z,101784.28
2023-03-16T07:58:52.417Z,101790.66
2023-03-16T08:01:20.632Z,101782.63
2023-03-16T08:03:51.395Z,101783.84
2023-03-16T08:06:19.368Z,101793.38
2023-03-16T08:08:47.200Z,101800.53
2023-03-16T08:11:27.185Z,101807.13
2023-03-16T08:13:58.592Z,101801.88
2023-03-16T08:16:35.718Z,101800.81
2023-03-16T08:19:06.037Z,101801.06
2023-03-16T08:21:35.078Z,101793.66
2023-03-16T08:24:06.477Z,101792.47
2023-03-16T08:26:34.785Z,101792.81
2023-03-16T08:29:03.934Z,101791.69
2023-03-16T08:31:35.723Z,101791.03
2023-03-16T08:34:26.784Z,101791.69
2023-03-16T08:36:55.319Z,101797.88
2023-03-16T08:39:24.006Z,101800.56
2023-03-16T08:41:52.144Z,101792.34
2023-03-16T08:44:29.649Z,101806.66
2023-03-16T08:46:57.663Z,101803.53
2023-03-16T08:49:27.184Z,101805.50
2023-03-16T08:52:04.069Z,101809.63
2023-03-16T08:54:32.342Z,101814.13
2023-03-16T08:57:00.465Z,101805.81
2023-03-16T08:59:30.491Z,101812.69
2023-03-16T09:01:58.750Z,101818.41
2023-03-16T09:04:29.848Z,101815.50
2023-03-16T09:07:08.401Z,101815.66
2023-03-16T09:09:37.155Z,101811.66
2023-03-16T09:12:05.939Z,101809.91
2023-03-16T09:14:33.921Z,101817.28
2023-03-16T09:17:01.701Z,101820.72
2023-03-16T09:19:44.246Z,101815.56
2023-03-16T09:22:18.513Z,101812.13
2023-03-16T09:24:46.416Z,101823.09
2023-03-16T09:27:15.268Z,101821.09
2023-03-16T09:29:43.623Z,101819.53
2023-03-16T09:32:11.710Z,101826.28
2023-03-16T09:34:41.325Z,101822.19
2023-03-16T09:37:09.630Z,101825.19
2023-03-16T09:39:38.227Z,101823.03
2023-03-16T09:42:13.892Z,101822.00
2023-03-16T09:44:45.305Z,101827.69
2023-03-16T09:47:13.677Z,101828.66
2023-03-16T09:49:46.125Z,101820.41
2023-03-16T09:52:24.507Z,101825.59
2023-03-16T09:54:56.930Z,101830.84
2023-03-16T09:57:28.013Z,101830.88
2023-03-16T09:59:56.002Z,101831.03
2023-03-16T10:02:41.988Z,101837.13
2023-03-16T10:05:12.953Z,101841.69
2023-03-16T10:07:49.794Z,101836.72
2023-03-16T10:10:25.260Z,101830.34
2023-03-16T10:12:54.453Z,101828.31
2023-03-16T10:15:27.137Z,101825.94
2023-03-16T10:17:58.965Z,101821.59
2023-03-16T10:20:34.122Z,101819.03
2023-03-16T10:23:09.860Z,101819.19
2023-03-16T10:25:44.258Z,101827.56
2023-03-16T10:28:15.706Z,101823.25
2023-03-16T10:30:44.042Z,101819.34
2023-03-16T10:33:20.012Z,101816.63
2023-03-16T10:35:52.458Z,101820.94
2023-03-16T10:38:32.844Z,101815.06
2023-03-16T10:41:01.602Z,101806.22
2023-03-16T10:43:32.060Z,101803.13
2023-03-16T10:46:02.648Z,101814.94
2023-03-16T10:48:34.150Z,101811.38
2023-03-16T10:51:05.642Z,101805.22
2023-03-16T10:53:36.901Z,101806.31
2023-03-16T10:56:11.941Z,101808.66
2023-03-16T10:58:42.023Z,101809.28
2023-03-16T11:01:13.847Z,101815.81
2023-03-16T11:03:42.528Z,101806.63
2023-03-16T11:06:22.518Z,101808.81
2023-03-16T11:08:52.304Z,101808.66
2023-03-16T11:11:25.997Z,101801.09
2023-03-16T11:13:57.674Z,101808.63
2023-03-16T11:16:30.523Z,101804.69
2023-03-16T11:18:59.662Z,101797.75
2023-03-16T11:21:39.588Z,101789.81
2023-03-16T11:24:15.284Z,101790.53
2023-03-16T11:26:45.419Z,101786.44
2023-03-16T11:29:20.285Z,101786.03
2023-03-16T11:31:53.265Z,101788.09
2023-03-16T11:34:27.300Z,101798.66
2023-03-16T11:36:59.882Z,101792.63
2023-03-16T11:39:40.475Z,101783.31
2023-03-16T11:42:25.081Z,101794.31
2023-03-16T11:44:57.684Z,101785.72
2023-03-16T11:47:39.295Z,101777.16
2023-03-16T11:50:12.331Z,101779.81
2023-03-16T11:52:48.378Z,101767.63
2023-03-16T11:55:25.872Z,101774.34
2023-03-16T11:58:02.745Z,101764.63
2023-03-16T12:00:40.336Z,101770.41
2023-03-16T12:03:37.824Z,101767.88
2023-03-16T12:06:22.121Z,101758.03
2023-03-16T12:09:10.909Z,101762.53
2023-03-16T12:11:43.884Z,101758.03
2023-03-16T12:14:18.261Z,101756.69
2023-03-16T12:16:50.167Z,101749.78
2023-03-16T12:19:23.091Z,101741.97
2023-03-16T12:22:02.506Z,101742.75
2023-03-16T12:24:36.665Z,101744.31
2023-03-16T12:27:04.913Z,101744.84
2023-03-16T12:29:37.520Z,101745.75
2023-03-16T12:32:11.705Z,101743.88
2023-03-16T12:34:42.604Z,101735.88
2023-03-16T12:37:20.089Z,101737.59
2023-03-16T12:40:15.661Z,101732.00
2023-03-16T12:43:02.649Z,101727.59
2023-03-16T12:45:35.334Z,101716.38
2023-03-16T12:48:11.394Z,101721.75
2023-03-16T12:50:50.244Z,101713.66
2023-03-16T12:53:28.727Z,101714.91
2023-03-16T12:55:58.291Z,101706.19
2023-03-16T12:58:27.500Z,101702.97
2023-03-16T13:00:57.737Z,101701.09
2023-03-16T13:03:26.563Z,101703.34
2023-03-16T13:05:56.756Z,101709.09
2023-03-16T13:08:24.778Z,101701.72
2023-03-16T13:11:05.389Z,101696.94
2023-03-16T13:13:34.072Z,101697.94
2023-03-16T13:16:09.316Z,101697.34
2023-03-16T13:18:41.622Z,101693.41
2023-03-16T13:21:18.914Z,101680.69
2023-03-16T13:23:58.648Z,101686.53
2023-03-16T13:26:40.068Z,101682.09
2023-03-16T13:29:21.306Z,101684.19
2023-03-16T13:31:49.597Z,101684.19
2023-03-16T13:34:23.219Z,101695.09
2023-03-16T13:36:55.270Z,101686.47
2023-03-16T13:39:27.220Z,101682.03
2023-03-16T13:42:04.680Z,101700.34
2023-03-16T13:44:33.557Z,101677.03
2023-03-16T13:47:05.543Z,101684.31
2023-03-16T13:49:33.552Z,101688.09
2023-03-16T13:52:03.521Z,101687.63
2023-03-16T13:54:31.757Z,101679.78
2023-03-16T13:57:03.662Z,101666.09
2023-03-16T13:59:31.784Z,101675.00
2023-03-16T14:02:01.769Z,101652.88
2023-03-16T14:04:31.790Z,101653.16
2023-03-16T14:07:02.325Z,101652.06
2023-03-16T14:09:33.163Z,101646.97
2023-03-16T14:12:03.587Z,101639.75
2023-03-16T14:14:32.987Z,101644.59
2023-03-16T14:17:05.228Z,101642.50
2023-03-16T14:19:42.495Z,101648.84
2023-03-16T14:22:18.547Z,101654.56
2023-03-16T14:24:47.962Z,101641.50
2023-03-16T14:27:20.350Z,101646.59
2023-03-16T14:29:55.185Z,101638.00
2023-03-16T14:32:28.185Z,101644.72
2023-03-16T14:35:05.144Z,101636.63
2023-03-16T14:37:37.208Z,101637.22
2023-03-16T14:40:08.071Z,101625.63
2023-03-16T14:42:40.530Z,101617.22
2023-03-16T14:45:13.415Z,101615.19
2023-03-16T14:47:43.414Z,101609.25
2023-03-16T14:50:16.955Z,101605.34
2023-03-16T14:52:45.742Z,101605.78
2023-03-16T14:55:15.790Z,101596.66
2023-03-16T14:57:46.117Z,101598.66
2023-03-16T15:00:21.552Z,101601.25
2023-03-16T15:02:59.607Z,101595.09
2023-03-16T15:05:35.097Z,101594.47
2023-03-16T15:08:03.704Z,101595.94
2023-03-16T15:10:33.359Z,101598.75
2023-03-16T15:13:12.905Z,101590.47
2023-03-16T15:15:42.445Z,101586.72
2023-03-16T15:18:10.805Z,101585.00
2023-03-16T15:20:41.426Z,101581.06
2023-03-16T15:23:13.328Z,101564.97
2023-03-16T15:25:41.773Z,101576.13
2023-03-16T15:28:17.219Z,101577.44
2023-03-16T15:30:46.007Z,101572.97
2023-03-16T15:33:14.386Z,101574.38
2023-03-16T15:35:42.751Z,101581.28
2023-03-16T15:38:15.301Z,101576.25
2023-03-16T15:40:45.425Z,101568.97
2023-03-16T15:43:17.872Z,101569.66
2023-03-16T15:45:47.142Z,101574.44
2023-03-16T15:48:15.562Z,101569.13
2023-03-16T15:50:46.721Z,101562.31
2023-03-16T15:53:29.640Z,101557.78
2023-03-16T15:56:01.192Z,101563.91
2023-03-16T15:58:32.453Z,101559.59
2023-03-16T16:01:01.490Z,101562.66
2023-03-16T16:03:29.843Z,101558.53
2023-03-16T16:05:57.681Z,101550.16
2023-03-16T16:08:25.587Z,101551.47
2023-03-16T16:10:53.783Z,101552.19
2023-03-16T16:13:26.684Z,101562.66
2023-03-16T16:15:58.738Z,101559.44
2023-03-16T16:18:30.225Z,101568.28
2023-03-16T16:20:59.105Z,101563.09
2023-03-16T16:23:27.336Z,101569.88
2023-03-16T16:25:57.295Z,101556.75
2023-03-16T16:28:27.018Z,101558.69
2023-03-16T16:30:55.828Z,101561.44
2023-03-16T16:33:26.766Z,101572.41
2023-03-16T16:35:55.660Z,101565.53
2023-03-16T16:38:23.753Z,101559.38
2023-03-16T16:40:52.447Z,101559.72
2023-03-16T16:43:28.444Z,101565.91
2023-03-16T16:45:56.465Z,101563.97
2023-03-16T16:48:33.606Z,101557.47
2023-03-16T16:51:02.150Z,101546.47
2023-03-16T16:53:30.439Z,101552.84
2023-03-16T16:55:58.359Z,101551.03
2023-03-16T16:58:27.160Z,101550.69
2023-03-16T17:00:58.016Z,101555.19
2023-03-16T17:03:28.447Z,101546.53
2023-03-16T17:05:59.127Z,101549.63
2023-03-16T17:08:27.466Z,101544.78
2023-03-16T17:10:55.642Z,101537.41
2023-03-16T17:13:29.789Z,101540.06
2023-03-16T17:15:57.801Z,101539.84
2023-03-16T17:18:25.817Z,101539.16
2023-03-16T17:20:53.792Z,101542.81
2023-03-16T17:23:31.180Z,101550.66
2023-03-16T17:26:00.868Z,101551.50
2023-03-16T17:28:30.639Z,101559.09
2023-03-16T17:30:58.667Z,101551.69
2023-03-16T17:33:27.275Z,101553.38
2023-03-16T17:35:55.394Z,101556.50
2023-03-16T17:38:24.841Z,101553.75
2023-03-16T17:40:54.428Z,101545.09
2023-03-16T17:43:23.653Z,101550.50
2023-03-16T17:45:53.208Z,101556.53
2023-03-16T17:48:22.660Z,101551.69
2023-03-16T17:50:51.504Z,101563.44
2023-03-16T17:53:21.576Z,101564.91
2023-03-16T17:55:49.424Z,101563.66
2023-03-16T17:58:25.900Z,101560.78
2023-03-16T18:00:54.693Z,101554.34
2023-03-16T18:03:23.432Z,101543.16
2023-03-16T18:05:51.581Z,101533.31
2023-03-16T18:08:25.639Z,101540.50
2023-03-16T18:10:55.089Z,101536.72
2023-03-16T18:13:27.937Z,101542.31
2023-03-16T18:15:57.205Z,101544.94
2023-03-16T18:18:27.658Z,101551.53
2023-03-16T18:20:57.148Z,101546.97
2023-03-16T18:23:26.953Z,101545.06
2023-03-16T18:26:02.118Z,101546.03
2023-03-16T18:28:32.090Z,101540.63
2023-03-16T18:31:01.361Z,101546.38
2023-03-16T18:33:31.012Z,101535.56
2023-03-16T18:36:00.656Z,101524.16
2023-03-16T18:38:31.129Z,101528.50
2023-03-16T18:40:59.663Z,101545.00
2023-03-16T18:43:27.789Z,101538.53
2023-03-16T18:45:57.168Z,101540.56
2023-03-16T18:48:28.143Z,101536.41
2023-03-16T18:50:56.470Z,101529.66
2023-03-16T18:53:24.363Z,101524.19
2023-03-16T18:55:52.638Z,101523.53
2023-03-16T18:58:22.640Z,101523.66
2023-03-16T19:00:53.641Z,101515.31
2023-03-16T19:03:26.061Z,101517.41
2023-03-16T19:05:54.454Z,101521.13
2023-03-16T19:08:22.557Z,101515.44
2023-03-16T19:10:52.812Z,101516.38
2023-03-16T19:13:22.564Z,101520.81
2023-03-16T19:15:52.126Z,101519.88
2023-03-16T19:18:20.042Z,101513.00
2023-03-16T19:20:50.416Z,101492.72
2023-03-16T19:23:21.720Z,101504.34
2023-03-16T19:25:50.404Z,101498.22
2023-03-16T19:28:28.089Z,101502.22
2023-03-16T19:30:58.181Z,101511.53
2023-03-16T19:33:27.426Z,101512.66
2023-03-16T19:35:57.833Z,101510.88
2023-03-16T19:38:26.520Z,101503.91
2023-03-16T19:40:56.254Z,101513.09
2023-03-16T19:43:24.794Z,101527.22
2023-03-16T19:45:53.070Z,101519.19
2023-03-16T19:48:22.901Z,101535.22
2023-03-16T19:50:51.994Z,101519.84
2023-03-16T19:53:23.023Z,101507.88
2023-03-16T19:55:52.758Z,101506.31
2023-03-16T19:58:25.429Z,101508.72
2023-03-16T20:00:53.470Z,101504.41
2023-03-16T20:03:21.816Z,101507.25
2023-03-16T20:05:49.973Z,101511.25
2023-03-16T20:08:22.889Z,101514.47
2023-03-16T20:10:51.195Z,101509.19
2023-03-16T20:13:19.987Z,101506.63
2023-03-16T20:15:48.126Z,101509.19
2023-03-16T20:18:17.288Z,101509.28
2023-03-16T20:20:45.317Z,101514.53
2023-03-16T20:23:24.418Z,101509.69
2023-03-16T20:25:53.069Z,101508.09
2023-03-16T20:28:23.105Z,101503.78
2023-03-16T20:30:51.656Z,101510.41
2023-03-16T20:33:22.764Z,101496.09
2023-03-16T20:35:53.358Z,101502.63
2023-03-16T20:38:23.290Z,101507.28
2023-03-16T20:40:53.101Z,101509.81
2023-03-16T20:43:25.420Z,101502.63
2023-03-16T20:45:54.689Z,101500.22
2023-03-16T20:48:25.223Z,101494.59
2023-03-16T20:50:53.232Z,101491.44
2023-03-16T20:53:21.490Z,101498.19
2023-03-16T20:55:51.211Z,101500.09
2023-03-16T20:58:21.158Z,101499.88
2023-03-16T21:00:51.032Z,101490.16
2023-03-16T21:03:20.664Z,101492.69
2023-03-16T21:05:48.866Z,101493.22
2023-03-16T21:08:17.767Z,101486.47
2023-03-16T21:10:47.756Z,101485.41
2023-03-16T21:13:19.817Z,101471.69
2023-03-16T21:15:49.918Z,101473.03
2023-03-16T21:18:19.797Z,101462.06
2023-03-16T21:20:48.878Z,101470.97
2023-03-16T21:23:18.147Z,101470.13
2023-03-16T21:25:48.320Z,101461.28
2023-03-16T21:28:19.146Z,101453.34
2023-03-16T21:30:49.062Z,101458.00
2023-03-16T21:33:29.845Z,101457.59
2023-03-16T21:35:58.702Z,101462.00
2023-03-16T21:38:28.194Z,101449.88
2023-03-16T21:40:56.238Z,101452.72
2023-03-16T21:43:25.795Z,101433.63
2023-03-16T21:45:54.058Z,101432.84
2023-03-16T21:48:24.006Z,101429.28
2023-03-16T21:50:53.829Z,101431.38
2023-03-16T21:53:24.320Z,101432.66
2023-03-16T21:55:53.273Z,101430.44
2023-03-16T21:58:22.144Z,101424.00
2023-03-16T22:00:52.727Z,101416.09
2023-03-16T22:03:26.439Z,101418.06
2023-03-16T22:05:55.699Z,101413.72
2023-03-16T22:08:25.890Z,101409.63
2023-03-16T22:10:54.645Z,101402.13
2023-03-16T22:13:23.884Z,101403.19
2023-03-16T22:15:54.631Z,101399.69
2023-03-16T22:18:32.173Z,101388.31
2023-03-16T22:21:01.482Z,101389.41
2023-03-16T22:23:31.733Z,101387.03
2023-03-16T22:26:00.051Z,101386.41
2023-03-16T22:28:28.123Z,101391.91
2023-03-16T22:30:58.939Z,101390.56
2023-03-16T22:33:29.786Z,101391.91
2023-03-16T22:36:08.086Z,101378.72
2023-03-16T22:38:36.273Z,101372.06
2023-03-16T22:41:04.255Z,101365.94
2023-03-16T22:43:33.539Z,101374.38
2023-03-16T22:46:02.883Z,101374.59
2023-03-16T22:48:31.965Z,101371.31
2023-03-16T22:51:02.441Z,101369.31
2023-03-16T22:53:38.045Z,101377.94
2023-03-16T22:56:07.194Z,101364.22
2023-03-16T22:58:36.462Z,101355.63
2023-03-16T23:01:16.981Z,101358.75
2023-03-16T23:03:45.042Z,101349.69
2023-03-16T23:06:17.419Z,101348.72
2023-03-16T23:08:45.935Z,101346.09
2023-03-16T23:11:16.689Z,101354.00
2023-03-16T23:13:44.936Z,101357.38
2023-03-16T23:16:20.781Z,101349.47
2023-03-16T23:18:49.528Z,101354.31
2023-03-16T23:21:19.337Z,101346.19
2023-03-16T23:23:57.083Z,101355.69
2023-03-16T23:26:30.573Z,101339.00
2023-03-16T23:28:58.451Z,101333.50
2023-03-16T23:31:28.082Z,101340.09
2023-03-16T23:33:56.122Z,101337.44
2023-03-16T23:36:25.740Z,101342.25
2023-03-16T23:38:54.233Z,101331.28
2023-03-16T23:41:23.977Z,101330.88
2023-03-16T23:43:52.176Z,101328.44
2023-03-16T23:46:21.740Z,101320.75
2023-03-16T23:48:52.328Z,101322.00
2023-03-16T23:51:22.289Z,101325.56
2023-03-16T23:53:50.482Z,101327.91
2023-03-16T23:56:18.424Z,101330.44
2023-03-16T23:58:46.806Z,101325.38
